SVYA4: Illinois River nr Savoy AR

                                SHEF ID:       SVYA4     Illinois River at Savoy, AR
STATION TYPE:

STAGE RIV-FLOW BAT-LOAD
ft cfs volt
Ccp-Rev Ccp-Rev Ccp-Rev
(America/Chicago)
04/27 00:00 5.17 903 12.73
04/27 01:00 5.09 865 12.73
04/27 02:00 4.99 818 12.73
04/27 03:00 4.93 790 12.73
04/27 04:00 4.87 762 12.65
04/27 05:00 4.80 729 12.65
04/27 06:00 4.75 707 12.65
04/27 07:00 4.69 680 12.65
04/27 08:00 4.64 659 12.65
04/27 09:00 4.59 637 12.73
04/27 10:00 4.54 617 13.13
04/27 11:00 4.50 600 13.29
04/27 12:00 4.47 588 13.53
04/27 13:00 4.43 572 13.60
04/27 14:00 4.40 560 13.84
04/27 15:00 4.37 548 13.21
04/27 16:00 4.34 537 13.37
04/27 17:00 4.30 521 13.37
04/27 18:00 4.26 506 13.29
04/27 19:00 4.22 491 13.21
04/27 20:00 4.17 473 12.97
04/27 21:00 4.12 455 12.89
04/27 22:00 4.10 448 12.81
04/27 23:00 4.06 434 12.81
Data processed at Tue 28Apr2026 04:14 GMT

NOTICE: If you are parsing this page

Please convert to using our Data API. Starting early 2026 we will be migrating to: https://water.usace.army.mil with modern pages rendered in JavaScript. When this migration completes you will no longer be able to scrape this page! CWMSDataAPI (CDA)

Timeseries IDs (TSIDs)

TSIDs used from left to right in the data table
SAVO.Stage.Inst.1Hour.0.Ccp-Rev
SAVO.Flow.Inst.1Hour.0.Ccp-Rev
SAVO.Volt-Battery Load.Inst.1Hour.0.Ccp-Rev

                            

All information presented herein is the property of the government of the United States of America and may be revised or deleted at any time without prior notice. Dissemination of this information without the expressed written consent of the Public Affairs Office, Tulsa District U.S. Army Corps of Engineers is strictly prohibited. These data are gathered electronically and, as presented, have NOT undergone any form of quality control. These data are NOT guaranteed to be valid or correct.